Time;durP1;ratioP1;P1;durP2;ratioP2;P2;SDS_P1;SDS_P2;PMS_P1;PMS_P2;Temp;Humidity;BMP_temperature;BMP_pressure;BME280_temperature;BME280_humidity;BME280_pressure;Samples;Min_cycle;Max_cycle;Signal;HPM_P1;HPM_P2
2022/07/02 00:01:00;;;;;;;;;;;14.10;67.60;;;;;;4172254;28;19925;-83
2022/07/02 00:03:23;;;;;;;;;;;14.10;67.70;;;;;;4173589;28;19936;-83
2022/07/02 00:05:49;;;;;;;;;;;14.00;67.80;;;;;;4157988;28;19995;-83
2022/07/02 00:08:10;;;;;;;;;;;14.00;68.00;;;;;;4162975;28;19995;-81
2022/07/02 00:10:31;;;;;;;;;;;14.00;68.30;;;;;;4160654;28;20296;-82
2022/07/02 00:12:52;;;;;;;;;;;14.00;68.30;;;;;;4162383;28;19945;-80
2022/07/02 00:15:14;;;;;;;;;;;13.90;68.30;;;;;;4159454;28;20007;-83
2022/07/02 00:17:35;;;;;;;;;;;13.80;68.50;;;;;;4175395;28;20041;-82
2022/07/02 00:19:56;;;;;;;;;;;13.80;68.30;;;;;;4159255;28;19929;-81
2022/07/02 00:22:17;;;;;;;;;;;13.80;68.30;;;;;;4172499;28;19923;-83
2022/07/02 00:24:40;;;;;;;;;;;13.80;68.20;;;;;;4174524;28;19923;-82
2022/07/02 00:27:03;;;;;;;;;;;13.70;68.60;;;;;;4159922;28;19948;-81
2022/07/02 00:29:36;;;;;;;;;;;13.70;69.00;;;;;;4158059;28;19917;-80
2022/07/02 00:31:57;;;;;;;;;;;13.70;68.80;;;;;;4162877;28;19919;-81
2022/07/02 00:34:19;;;;;;;;;;;13.80;68.90;;;;;;4163362;28;19928;-81
2022/07/02 00:36:39;;;;;;;;;;;13.60;68.70;;;;;;4164347;28;19912;-82
2022/07/02 00:39:01;;;;;;;;;;;13.60;68.50;;;;;;4164726;28;19917;-82
2022/07/02 00:41:22;;;;;;;;;;;13.60;68.60;;;;;;4166890;28;20376;-81
2022/07/02 00:43:44;;;;;;;;;;;13.60;68.60;;;;;;4150426;28;19947;-83
2022/07/02 00:46:05;;;;;;;;;;;13.60;68.60;;;;;;4162335;28;19916;-80
2022/07/02 00:48:26;;;;;;;;;;;13.60;68.60;;;;;;4164657;28;19970;-80
2022/07/02 00:50:47;;;;;;;;;;;13.50;68.70;;;;;;4161092;28;20343;-82
2022/07/02 00:53:12;;;;;;;;;;;13.50;68.70;;;;;;4149791;28;19909;-79
2022/07/02 00:55:33;;;;;;;;;;;13.50;69.00;;;;;;4167400;28;19908;-81
2022/07/02 00:57:54;;;;;;;;;;;13.50;68.80;;;;;;4153145;28;19920;-82
2022/07/02 01:00:15;;;;;;;;;;;13.50;69.00;;;;;;4168193;28;19917;-81
2022/07/02 01:02:37;;;;;;;;;;;13.50;69.00;;;;;;4165633;28;19913;-80
2022/07/02 01:04:59;;;;;;;;;;;13.40;68.90;;;;;;4161136;28;19913;-79
2022/07/02 01:07:20;;;;;;;;;;;13.40;69.00;;;;;;4171298;28;20008;-82
2022/07/02 01:12:23;;;;;;;;;;;13.40;69.30;;;;;;4168432;28;19959;-81
2022/07/02 01:14:45;;;;;;;;;;;13.30;69.10;;;;;;4165310;28;19917;-81
2022/07/02 01:17:06;;;;;;;;;;;13.30;69.20;;;;;;4154117;28;20364;-81
2022/07/02 01:19:27;;;;;;;;;;;13.30;70.00;;;;;;4158294;28;19924;-81
2022/07/02 01:22:06;;;;;;;;;;;13.30;69.30;;;;;;4167882;28;19916;-81
2022/07/02 01:24:27;;;;;;;;;;;13.30;69.40;;;;;;4170667;28;19909;-80
2022/07/02 01:26:48;;;;;;;;;;;13.20;69.70;;;;;;4170726;28;19909;-80
2022/07/02 01:29:09;;;;;;;;;;;13.20;69.70;;;;;;4157727;28;19913;-82
2022/07/02 01:31:30;;;;;;;;;;;13.20;69.80;;;;;;4172929;28;19909;-81
2022/07/02 01:33:51;;;;;;;;;;;13.10;69.60;;;;;;4175242;28;19919;-82
2022/07/02 01:36:12;;;;;;;;;;;13.10;69.40;;;;;;4167986;28;19948;-82
2022/07/02 01:38:33;;;;;;;;;;;13.10;69.40;;;;;;4165644;28;20392;-80
2022/07/02 01:41:38;;;;;;;;;;;13.10;69.80;;;;;;4151945;28;19920;-82
2022/07/02 01:43:36;;;;;;;;;;;13.00;69.20;;;;;;4167177;28;19920;-81
2022/07/02 01:45:57;;;;;;;;;;;13.10;69.20;;;;;;4166330;28;19909;-81
2022/07/02 01:48:18;;;;;;;;;;;13.00;69.10;;;;;;4168593;28;20397;-82
2022/07/02 01:50:38;;;;;;;;;;;13.00;69.10;;;;;;4169977;28;19908;-81
2022/07/02 01:52:59;;;;;;;;;;;13.00;69.80;;;;;;4155368;28;20551;-79
2022/07/02 01:55:20;;;;;;;;;;;12.90;70.10;;;;;;4170062;28;19917;-82
2022/07/02 01:57:41;;;;;;;;;;;12.90;70.10;;;;;;4166208;28;19912;-81
2022/07/02 02:00:06;;;;;;;;;;;12.90;70.10;;;;;;4167337;28;20365;-80
2022/07/02 02:02:26;;;;;;;;;;;12.90;70.30;;;;;;4168354;28;20458;-80
2022/07/02 02:04:47;;;;;;;;;;;12.90;70.00;;;;;;4167711;28;19916;-82
2022/07/02 02:07:08;;;;;;;;;;;12.90;70.00;;;;;;4156351;28;19909;-81
2022/07/02 02:09:29;;;;;;;;;;;12.90;70.00;;;;;;4170098;28;19920;-83
2022/07/02 02:11:50;;;;;;;;;;;12.80;69.90;;;;;;4169480;28;20361;-83
2022/07/02 02:14:11;;;;;;;;;;;12.80;69.80;;;;;;4156968;28;19916;-82
2022/07/02 02:16:32;;;;;;;;;;;12.80;69.90;;;;;;4169701;28;20397;-83
2022/07/02 02:18:54;;;;;;;;;;;12.80;70.00;;;;;;4156929;28;19988;-81
2022/07/02 02:21:15;;;;;;;;;;;12.80;70.10;;;;;;4161060;28;20053;-80
2022/07/02 02:23:36;;;;;;;;;;;12.80;70.20;;;;;;4172245;28;19908;-81
2022/07/02 02:25:57;;;;;;;;;;;12.80;70.20;;;;;;4171941;28;19982;-80
2022/07/02 02:28:18;;;;;;;;;;;12.80;70.50;;;;;;4180478;28;19908;-81
2022/07/02 02:30:39;;;;;;;;;;;12.80;70.90;;;;;;4172564;28;19940;-82
2022/07/02 02:33:00;;;;;;;;;;;12.70;70.90;;;;;;4169522;28;19916;-80
2022/07/02 02:35:21;;;;;;;;;;;12.70;71.30;;;;;;4158982;28;19909;-82
2022/07/02 02:37:42;;;;;;;;;;;12.70;71.20;;;;;;4170919;28;19908;-79
2022/07/02 02:40:03;;;;;;;;;;;12.70;70.90;;;;;;4170778;28;20647;-83
2022/07/02 02:42:24;;;;;;;;;;;12.70;71.60;;;;;;4174027;28;19928;-81
2022/07/02 02:44:45;;;;;;;;;;;12.70;71.40;;;;;;4179779;28;19916;-80
2022/07/02 02:47:05;;;;;;;;;;;12.70;71.00;;;;;;4174579;28;19908;-80
2022/07/02 02:49:26;;;;;;;;;;;12.70;71.00;;;;;;4169107;28;19918;-80
2022/07/02 02:51:47;;;;;;;;;;;12.70;71.10;;;;;;4176191;28;19919;-81
2022/07/02 02:54:08;;;;;;;;;;;12.70;71.70;;;;;;4152017;28;19919;-81
2022/07/02 02:56:29;;;;;;;;;;;12.70;72.20;;;;;;4168775;28;19913;-80
2022/07/02 02:58:50;;;;;;;;;;;12.70;73.00;;;;;;4172425;28;19917;-82
2022/07/02 03:01:10;;;;;;;;;;;12.70;72.30;;;;;;4175130;28;19923;-81
2022/07/02 03:03:31;;;;;;;;;;;12.60;72.20;;;;;;4174770;28;22577;-79
2022/07/02 03:05:53;;;;;;;;;;;12.70;72.50;;;;;;4158900;28;19916;-83
2022/07/02 03:08:14;;;;;;;;;;;12.70;72.10;;;;;;4174612;28;19917;-80
2022/07/02 03:10:35;;;;;;;;;;;12.70;72.10;;;;;;4172627;28;19920;-82
2022/07/02 03:12:55;;;;;;;;;;;12.60;71.90;;;;;;4155725;28;20798;-83
2022/07/02 03:15:16;;;;;;;;;;;12.60;72.40;;;;;;4172121;28;19999;-82
2022/07/02 03:17:37;;;;;;;;;;;12.60;72.30;;;;;;4178819;28;20383;-80
2022/07/02 03:19:58;;;;;;;;;;;12.70;73.10;;;;;;4155797;28;19925;-81
2022/07/02 03:22:19;;;;;;;;;;;12.60;73.40;;;;;;4172092;28;20377;-82
2022/07/02 03:24:40;;;;;;;;;;;12.70;73.10;;;;;;4163097;28;20006;-80
2022/07/02 03:27:01;;;;;;;;;;;12.70;72.90;;;;;;4168513;28;19917;-80
2022/07/02 03:29:22;;;;;;;;;;;12.70;72.80;;;;;;4176433;28;20020;-83
2022/07/02 03:31:43;;;;;;;;;;;12.70;73.20;;;;;;4165423;28;19924;-80
2022/07/02 03:34:04;;;;;;;;;;;12.70;73.20;;;;;;4157850;28;19916;-82
2022/07/02 03:36:25;;;;;;;;;;;12.70;73.40;;;;;;4153909;28;19913;-80
2022/07/02 03:38:45;;;;;;;;;;;12.70;73.70;;;;;;4153582;28;19971;-80
2022/07/02 03:41:06;;;;;;;;;;;12.70;73.90;;;;;;4163529;28;19982;-82
2022/07/02 03:43:27;;;;;;;;;;;12.80;74.30;;;;;;4161923;28;19909;-82
2022/07/02 03:45:48;;;;;;;;;;;12.80;74.00;;;;;;4166022;28;19999;-81
2022/07/02 03:48:09;;;;;;;;;;;12.80;73.80;;;;;;4154863;28;20011;-81
2022/07/02 03:50:30;;;;;;;;;;;12.80;73.80;;;;;;4168271;28;19917;-81
2022/07/02 03:52:51;;;;;;;;;;;12.90;73.80;;;;;;4170830;28;19920;-82
2022/07/02 03:55:11;;;;;;;;;;;12.90;74.10;;;;;;4167015;28;19909;-80
2022/07/02 03:57:32;;;;;;;;;;;13.00;74.70;;;;;;4156532;28;20060;-80
2022/07/02 03:59:53;;;;;;;;;;;13.10;75.20;;;;;;4172982;28;19913;-82
2022/07/02 04:02:14;;;;;;;;;;;13.10;75.60;;;;;;4170097;28;20285;-80
2022/07/02 04:04:35;;;;;;;;;;;13.20;76.10;;;;;;4158051;28;20007;-79
2022/07/02 04:06:56;;;;;;;;;;;13.30;77.00;;;;;;4169238;28;19917;-82
2022/07/02 04:09:17;;;;;;;;;;;13.40;77.30;;;;;;4159483;28;19913;-79
2022/07/02 04:11:38;;;;;;;;;;;13.50;78.50;;;;;;4170998;28;19917;-79
2022/07/02 04:13:59;;;;;;;;;;;13.50;78.30;;;;;;4156816;28;19921;-83
2022/07/02 04:16:20;;;;;;;;;;;13.60;78.00;;;;;;4181963;28;19951;-80
2022/07/02 04:18:41;;;;;;;;;;;13.70;78.80;;;;;;4169056;28;19958;-81
2022/07/02 04:21:02;;;;;;;;;;;13.80;78.90;;;;;;4169823;28;19917;-81
2022/07/02 04:23:23;;;;;;;;;;;13.90;79.80;;;;;;4169963;28;19909;-83
2022/07/02 04:25:44;;;;;;;;;;;14.00;79.90;;;;;;4165692;28;22139;-83
2022/07/02 04:28:04;;;;;;;;;;;14.20;80.50;;;;;;4168892;28;20376;-81
2022/07/02 04:30:25;;;;;;;;;;;14.30;80.30;;;;;;4171006;28;19917;-84
2022/07/02 04:32:46;;;;;;;;;;;14.40;79.80;;;;;;4169094;28;19912;-83
2022/07/02 04:35:07;;;;;;;;;;;14.50;79.60;;;;;;4175087;28;19912;-81
2022/07/02 04:37:28;;;;;;;;;;;14.60;79.60;;;;;;4167451;28;19916;-83
2022/07/02 04:39:49;;;;;;;;;;;14.70;79.30;;;;;;4167199;28;19920;-81
2022/07/02 04:42:10;;;;;;;;;;;14.80;79.60;;;;;;4184584;28;19979;-82
2022/07/02 04:44:31;;;;;;;;;;;14.90;79.30;;;;;;4174125;28;20428;-84
2022/07/02 04:46:52;;;;;;;;;;;15.00;79.00;;;;;;4155595;28;19972;-82
2022/07/02 04:49:13;;;;;;;;;;;15.10;78.90;;;;;;4173925;28;19920;-80
2022/07/02 04:51:34;;;;;;;;;;;15.30;79.00;;;;;;4166159;28;19920;-80
2022/07/02 04:53:55;;;;;;;;;;;15.40;79.20;;;;;;4153540;28;19939;-83
2022/07/02 04:56:16;;;;;;;;;;;15.50;78.70;;;;;;4149449;28;20040;-83
2022/07/02 04:58:36;;;;;;;;;;;15.60;79.20;;;;;;4163456;28;19905;-82
2022/07/02 05:00:57;;;;;;;;;;;15.70;77.90;;;;;;4167131;28;19930;-82
2022/07/02 05:03:18;;;;;;;;;;;15.80;77.80;;;;;;4172043;28;20087;-80
2022/07/02 05:05:39;;;;;;;;;;;15.90;76.10;;;;;;4177428;28;19944;-81
2022/07/02 05:08:00;;;;;;;;;;;16.00;75.50;;;;;;4166208;28;19912;-82
2022/07/02 05:10:21;;;;;;;;;;;16.00;74.80;;;;;;4168014;28;19908;-80
2022/07/02 05:12:42;;;;;;;;;;;16.10;74.70;;;;;;4161654;28;19913;-82
2022/07/02 05:15:03;;;;;;;;;;;16.20;74.50;;;;;;4171446;28;20111;-81
2022/07/02 05:17:23;;;;;;;;;;;16.30;74.40;;;;;;4170066;28;19921;-82
2022/07/02 05:19:44;;;;;;;;;;;16.30;74.10;;;;;;4163399;28;19952;-82
2022/07/02 05:22:05;;;;;;;;;;;16.40;73.90;;;;;;4174779;28;20646;-80
2022/07/02 05:24:26;;;;;;;;;;;16.50;73.90;;;;;;4156819;28;20281;-81
2022/07/02 05:26:47;;;;;;;;;;;16.60;73.80;;;;;;4169199;28;19919;-83
2022/07/02 05:29:08;;;;;;;;;;;16.70;73.50;;;;;;4168355;28;19936;-80
2022/07/02 05:31:29;;;;;;;;;;;16.70;73.00;;;;;;4164068;28;19991;-82
2022/07/02 05:33:50;;;;;;;;;;;16.80;72.80;;;;;;4160281;28;19997;-83
2022/07/02 05:36:11;;;;;;;;;;;16.90;72.50;;;;;;4172490;28;19932;-82
2022/07/02 05:38:31;;;;;;;;;;;17.00;72.30;;;;;;4172689;28;19913;-82
2022/07/02 05:40:52;;;;;;;;;;;17.00;72.10;;;;;;4175477;28;19962;-80
2022/07/02 05:43:13;;;;;;;;;;;17.10;71.80;;;;;;4163384;28;19931;-81
2022/07/02 05:45:34;;;;;;;;;;;17.10;71.70;;;;;;4171741;28;20362;-82
2022/07/02 05:47:55;;;;;;;;;;;17.20;71.50;;;;;;4170428;28;19986;-82
2022/07/02 05:50:16;;;;;;;;;;;17.20;70.90;;;;;;4160704;28;19920;-80
2022/07/02 05:52:37;;;;;;;;;;;17.30;70.80;;;;;;4167420;28;19963;-81
2022/07/02 05:54:58;;;;;;;;;;;17.30;70.10;;;;;;4167705;28;19917;-83
2022/07/02 05:57:19;;;;;;;;;;;17.40;70.30;;;;;;4171271;28;19986;-82
2022/07/02 05:59:40;;;;;;;;;;;17.50;69.40;;;;;;4167402;28;19916;-81
2022/07/02 06:02:01;;;;;;;;;;;17.60;69.60;;;;;;4163004;28;20668;-80
2022/07/02 06:04:21;;;;;;;;;;;17.70;70.10;;;;;;4173096;28;19909;-81
2022/07/02 06:09:22;;;;;;;;;;;17.80;69.40;;;;;;4169777;28;19974;-83
2022/07/02 06:11:42;;;;;;;;;;;17.90;68.70;;;;;;4168516;28;19913;-80
2022/07/02 06:14:03;;;;;;;;;;;17.90;69.20;;;;;;4166027;28;19970;-81
2022/07/02 06:16:27;;;;;;;;;;;18.00;68.40;;;;;;4169792;28;19913;-82
2022/07/02 06:18:48;;;;;;;;;;;18.00;67.20;;;;;;4156224;28;19924;-83
2022/07/02 06:21:09;;;;;;;;;;;18.10;67.30;;;;;;4172496;28;19917;-82
2022/07/02 06:23:30;;;;;;;;;;;18.20;64.70;;;;;;4174402;28;19919;-82
2022/07/02 06:25:51;;;;;;;;;;;18.20;64.00;;;;;;4168552;28;19990;-83
2022/07/02 06:28:14;;;;;;;;;;;18.30;65.40;;;;;;4171264;28;19950;-82
2022/07/02 06:30:35;;;;;;;;;;;18.30;64.00;;;;;;4169352;28;19940;-80
2022/07/02 06:32:56;;;;;;;;;;;18.40;63.10;;;;;;4164712;28;20226;-80
2022/07/02 06:35:17;;;;;;;;;;;18.40;64.30;;;;;;4159804;28;19916;-81
2022/07/02 06:37:38;;;;;;;;;;;18.50;63.20;;;;;;4169766;28;19940;-80
2022/07/02 06:39:59;;;;;;;;;;;18.50;64.70;;;;;;4150372;28;19916;-81
2022/07/02 06:42:20;;;;;;;;;;;18.60;62.90;;;;;;4166497;28;19974;-81
2022/07/02 06:44:41;;;;;;;;;;;18.70;63.60;;;;;;4160360;28;20056;-82
2022/07/02 06:47:02;;;;;;;;;;;18.70;64.20;;;;;;4154676;28;20014;-82
2022/07/02 06:49:23;;;;;;;;;;;18.80;64.30;;;;;;4164874;28;19920;-81
2022/07/02 06:51:44;;;;;;;;;;;18.80;62.80;;;;;;4167920;28;19917;-83
2022/07/02 06:54:05;;;;;;;;;;;18.90;62.40;;;;;;4163290;28;19913;-81
2022/07/02 06:56:27;;;;;;;;;;;18.90;62.40;;;;;;4159905;28;19960;-82
2022/07/02 06:58:48;;;;;;;;;;;19.00;61.50;;;;;;4138469;28;19917;-81
2022/07/02 07:01:09;;;;;;;;;;;19.00;61.20;;;;;;4160976;28;19913;-81
2022/07/02 07:03:33;;;;;;;;;;;19.10;60.70;;;;;;4160800;28;19952;-81
2022/07/02 07:05:53;;;;;;;;;;;19.20;60.40;;;;;;4168166;28;19909;-80
2022/07/02 07:08:15;;;;;;;;;;;19.20;59.90;;;;;;4157333;28;19952;-81
2022/07/02 07:10:36;;;;;;;;;;;19.20;58.20;;;;;;4167203;28;19912;-80
2022/07/02 07:12:57;;;;;;;;;;;19.30;57.70;;;;;;4165237;28;19958;-82
2022/07/02 07:15:21;;;;;;;;;;;19.30;59.00;;;;;;4152979;28;19959;-81
2022/07/02 07:17:43;;;;;;;;;;;19.40;59.60;;;;;;4161679;28;19909;-82
2022/07/02 07:20:05;;;;;;;;;;;19.50;60.50;;;;;;4148653;28;20110;-84
2022/07/02 07:22:26;;;;;;;;;;;19.50;59.30;;;;;;4156364;28;19923;-83
2022/07/02 07:24:47;;;;;;;;;;;19.60;57.90;;;;;;4157571;28;19936;-83
2022/07/02 07:27:08;;;;;;;;;;;19.60;58.40;;;;;;4145306;28;20678;-83
2022/07/02 07:29:29;;;;;;;;;;;19.70;58.50;;;;;;4174337;28;19912;-83
2022/07/02 07:31:51;;;;;;;;;;;19.70;59.50;;;;;;4144702;28;19941;-83
2022/07/02 07:34:11;;;;;;;;;;;19.80;58.90;;;;;;4161953;28;19909;-83
2022/07/02 07:36:34;;;;;;;;;;;19.90;58.80;;;;;;4157326;28;19919;-84
2022/07/02 07:38:56;;;;;;;;;;;19.90;59.60;;;;;;4159212;28;19925;-83
2022/07/02 07:41:18;;;;;;;;;;;20.00;58.90;;;;;;4163301;28;20007;-82
2022/07/02 07:43:39;;;;;;;;;;;20.00;57.10;;;;;;4166221;28;20210;-82
2022/07/02 07:46:00;;;;;;;;;;;20.10;58.60;;;;;;4154153;28;19913;-80
2022/07/02 07:48:21;;;;;;;;;;;20.10;58.50;;;;;;4159245;28;20621;-82
2022/07/02 07:50:42;;;;;;;;;;;20.20;58.80;;;;;;4143029;28;19944;-78
2022/07/02 07:53:03;;;;;;;;;;;20.30;57.30;;;;;;4152545;28;20488;-80
2022/07/02 07:55:24;;;;;;;;;;;20.30;58.10;;;;;;4154760;28;19968;-81
2022/07/02 07:57:45;;;;;;;;;;;20.40;58.20;;;;;;4156209;28;19920;-82
2022/07/02 08:00:06;;;;;;;;;;;20.50;57.00;;;;;;4143195;28;20499;-81
2022/07/02 08:02:27;;;;;;;;;;;20.50;56.90;;;;;;4156925;28;19936;-81
2022/07/02 08:04:48;;;;;;;;;;;20.60;56.60;;;;;;4152999;28;19948;-80
2022/07/02 08:07:09;;;;;;;;;;;20.60;57.10;;;;;;4138797;28;20011;-80
2022/07/02 08:09:30;;;;;;;;;;;20.70;57.70;;;;;;4156222;28;20412;-79
2022/07/02 08:11:51;;;;;;;;;;;20.80;57.70;;;;;;4169981;28;20008;-80
2022/07/02 08:14:12;;;;;;;;;;;20.80;57.10;;;;;;4156706;28;19955;-81
2022/07/02 08:16:33;;;;;;;;;;;20.90;56.40;;;;;;4164812;28;20887;-79
2022/07/02 08:18:54;;;;;;;;;;;20.90;54.30;;;;;;4150506;28;19917;-82
2022/07/02 08:21:15;;;;;;;;;;;21.00;54.30;;;;;;4152104;28;19992;-82
2022/07/02 08:23:36;;;;;;;;;;;21.00;55.30;;;;;;4166443;28;19915;-80
2022/07/02 08:25:56;;;;;;;;;;;21.10;55.10;;;;;;4162297;28;19967;-79
2022/07/02 08:28:17;;;;;;;;;;;21.20;55.80;;;;;;4161264;28;19974;-82
2022/07/02 08:30:38;;;;;;;;;;;21.20;53.20;;;;;;4163172;28;19932;-82
2022/07/02 08:32:59;;;;;;;;;;;21.20;52.60;;;;;;4164073;28;19913;-83
2022/07/02 08:35:20;;;;;;;;;;;21.30;52.40;;;;;;4166919;28;19924;-79
2022/07/02 08:37:41;;;;;;;;;;;21.30;51.80;;;;;;4163425;28;19954;-83
2022/07/02 08:40:10;;;;;;;;;;;21.40;51.10;;;;;;4169585;28;20015;-81
2022/07/02 08:42:31;;;;;;;;;;;21.50;50.90;;;;;;4168226;28;21022;-82
2022/07/02 08:44:53;;;;;;;;;;;21.60;53.10;;;;;;4165129;28;19943;-81
2022/07/02 08:47:14;;;;;;;;;;;21.60;48.50;;;;;;4141935;28;20356;-82
2022/07/02 08:49:37;;;;;;;;;;;21.70;52.10;;;;;;4164904;28;19917;-83
2022/07/02 08:52:03;;;;;;;;;;;21.70;48.40;;;;;;4163974;28;19908;-81
2022/07/02 08:54:24;;;;;;;;;;;21.80;48.60;;;;;;4168878;28;19916;-82
2022/07/02 08:56:46;;;;;;;;;;;21.80;49.70;;;;;;4160195;28;21778;-81
2022/07/02 08:59:12;;;;;;;;;;;21.90;49.10;;;;;;4163817;28;19928;-81
2022/07/02 09:01:33;;;;;;;;;;;21.90;47.80;;;;;;4161122;28;19994;-82
2022/07/02 09:03:54;;;;;;;;;;;22.00;47.70;;;;;;4165707;28;20012;-82
2022/07/02 09:06:16;;;;;;;;;;;22.00;46.70;;;;;;4166420;28;19972;-84
2022/07/02 09:08:38;;;;;;;;;;;22.00;49.40;;;;;;4150369;28;20056;-80
2022/07/02 09:11:00;;;;;;;;;;;22.10;49.40;;;;;;4168245;28;20805;-83
2022/07/02 09:13:22;;;;;;;;;;;22.10;48.80;;;;;;4167033;28;19983;-83
2022/07/02 09:15:44;;;;;;;;;;;22.10;47.60;;;;;;4168541;28;19909;-82
2022/07/02 09:18:06;;;;;;;;;;;22.20;49.30;;;;;;4147411;28;19913;-82
2022/07/02 09:20:26;;;;;;;;;;;22.20;50.20;;;;;;4149875;28;19921;-83
2022/07/02 09:22:48;;;;;;;;;;;22.30;49.00;;;;;;4159636;28;20047;-88
2022/07/02 09:25:11;;;;;;;;;;;22.30;44.20;;;;;;4169001;28;20368;-89
2022/07/02 09:27:32;;;;;;;;;;;22.30;46.20;;;;;;4170778;28;19943;-90
2022/07/02 09:29:53;;;;;;;;;;;22.30;44.10;;;;;;4162018;28;20408;-89
2022/07/02 09:32:14;;;;;;;;;;;22.30;45.80;;;;;;4150450;28;19917;-89
2022/07/02 09:34:43;;;;;;;;;;;22.40;44.30;;;;;;4167199;28;20012;-89
2022/07/02 09:37:11;;;;;;;;;;;22.30;45.40;;;;;;4165045;28;20665;-88
2022/07/02 09:39:32;;;;;;;;;;;22.30;43.60;;;;;;4161759;28;19925;-89
2022/07/02 09:41:53;;;;;;;;;;;22.30;44.80;;;;;;4165133;28;19916;-90
2022/07/02 09:44:14;;;;;;;;;;;22.30;44.60;;;;;;4170808;28;20185;-89
2022/07/02 09:46:34;;;;;;;;;;;22.40;44.90;;;;;;4173543;28;20026;-89
2022/07/02 09:49:06;;;;;;;;;;;22.40;46.40;;;;;;4171628;28;19912;-90
2022/07/02 09:51:27;;;;;;;;;;;22.50;45.20;;;;;;4162970;28;19952;-87
2022/07/02 09:53:49;;;;;;;;;;;22.50;46.40;;;;;;4163622;28;20621;-88
2022/07/02 09:56:10;;;;;;;;;;;22.60;47.40;;;;;;4164231;28;19916;-88
2022/07/02 09:58:31;;;;;;;;;;;22.70;46.20;;;;;;4180832;28;19927;-88
2022/07/02 10:00:53;;;;;;;;;;;22.70;43.30;;;;;;4166467;28;19966;-89
2022/07/02 10:03:13;;;;;;;;;;;22.80;45.20;;;;;;4154737;28;19913;-88
2022/07/02 10:05:35;;;;;;;;;;;22.80;43.30;;;;;;4169311;28;19917;-89
2022/07/02 10:07:56;;;;;;;;;;;22.90;43.90;;;;;;4166697;28;19917;-88
2022/07/02 10:10:19;;;;;;;;;;;22.90;44.80;;;;;;4156173;28;19912;-89
2022/07/02 10:12:42;;;;;;;;;;;23.00;44.10;;;;;;4156645;28;19916;-85
2022/07/02 10:15:04;;;;;;;;;;;23.00;44.50;;;;;;4163340;28;19923;-84
2022/07/02 10:17:28;;;;;;;;;;;23.00;45.00;;;;;;4168741;28;19928;-86
2022/07/02 10:19:51;;;;;;;;;;;23.00;43.20;;;;;;4159705;28;20348;-87
2022/07/02 10:22:13;;;;;;;;;;;23.00;44.20;;;;;;4156149;28;20040;-87
2022/07/02 10:24:34;;;;;;;;;;;23.00;42.40;;;;;;4163435;28;19916;-86
2022/07/02 10:26:55;;;;;;;;;;;23.00;41.50;;;;;;4159209;28;19916;-88
2022/07/02 10:29:17;;;;;;;;;;;23.00;43.40;;;;;;4163340;28;19978;-87
2022/07/02 10:31:41;;;;;;;;;;;22.90;42.40;;;;;;4158939;28;20169;-88
2022/07/02 10:34:15;;;;;;;;;;;22.90;43.60;;;;;;4145109;28;20278;-86
2022/07/02 10:36:36;;;;;;;;;;;22.90;42.40;;;;;;4156861;28;20007;-86
2022/07/02 10:38:58;;;;;;;;;;;22.90;42.50;;;;;;4168689;28;19959;-89
2022/07/02 10:41:24;;;;;;;;;;;22.80;41.00;;;;;;4165461;28;19963;-87
2022/07/02 10:43:46;;;;;;;;;;;22.70;40.50;;;;;;4159191;28;20000;-88
2022/07/02 10:46:08;;;;;;;;;;;22.70;42.30;;;;;;4146500;28;19913;-87
2022/07/02 10:48:29;;;;;;;;;;;22.70;41.60;;;;;;4147802;28;20900;-86
2022/07/02 10:50:55;;;;;;;;;;;22.60;41.10;;;;;;4151209;28;19913;-85
2022/07/02 10:53:24;;;;;;;;;;;22.60;41.30;;;;;;4165673;28;19920;-86
2022/07/02 10:55:58;;;;;;;;;;;22.60;41.40;;;;;;4155094;28;19916;-85
2022/07/02 10:58:25;;;;;;;;;;;22.60;42.30;;;;;;4159478;28;20230;-87
2022/07/02 11:00:46;;;;;;;;;;;22.60;42.50;;;;;;4164218;28;19920;-88
2022/07/02 11:03:17;;;;;;;;;;;22.60;41.10;;;;;;4157308;28;19912;-87
2022/07/02 11:05:51;;;;;;;;;;;22.70;43.00;;;;;;4152636;28;19917;-87
2022/07/02 11:08:32;;;;;;;;;;;22.70;41.20;;;;;;4153730;28;20448;-87
2022/07/02 11:10:53;;;;;;;;;;;22.70;41.80;;;;;;4161839;28;20050;-87
2022/07/02 11:13:15;;;;;;;;;;;22.70;40.60;;;;;;4161547;28;19924;-87
2022/07/02 11:15:37;;;;;;;;;;;22.70;42.00;;;;;;4165405;28;19959;-85
2022/07/02 11:18:01;;;;;;;;;;;22.70;39.20;;;;;;4158888;28;19897;-87
2022/07/02 11:20:24;;;;;;;;;;;22.70;40.00;;;;;;4154395;28;19975;-86
2022/07/02 11:22:45;;;;;;;;;;;22.80;40.60;;;;;;4147193;28;19916;-89
2022/07/02 11:25:06;;;;;;;;;;;22.80;41.80;;;;;;4145492;28;20530;-85
2022/07/02 11:27:27;;;;;;;;;;;22.80;40.50;;;;;;4154210;28;21270;-89
2022/07/02 11:29:53;;;;;;;;;;;22.80;40.20;;;;;;4164224;28;19916;-86
2022/07/02 11:32:14;;;;;;;;;;;22.90;41.30;;;;;;4161006;28;20148;-86
2022/07/02 11:34:35;;;;;;;;;;;22.90;42.00;;;;;;4157484;28;19913;-88
2022/07/02 11:36:56;;;;;;;;;;;23.00;40.70;;;;;;4153840;28;19965;-89
2022/07/02 11:39:18;;;;;;;;;;;23.00;39.80;;;;;;4163022;28;19913;-88
2022/07/02 11:41:40;;;;;;;;;;;23.10;40.00;;;;;;4150139;28;19913;-86
2022/07/02 11:44:14;;;;;;;;;;;23.10;39.30;;;;;;4147199;28;19963;-87
2022/07/02 11:46:35;;;;;;;;;;;23.10;37.70;;;;;;4142721;28;19961;-85
2022/07/02 11:48:57;;;;;;;;;;;23.10;38.40;;;;;;4156002;28;20624;-87
2022/07/02 11:51:21;;;;;;;;;;;23.00;39.10;;;;;;4159646;28;19912;-89
2022/07/02 11:53:42;;;;;;;;;;;23.00;38.80;;;;;;4157633;28;19912;-86
2022/07/02 11:56:10;;;;;;;;;;;23.00;39.60;;;;;;4153897;28;19958;-85
2022/07/02 11:58:41;;;;;;;;;;;22.90;39.40;;;;;;4166924;28;20426;-85
2022/07/02 12:01:01;;;;;;;;;;;22.90;40.00;;;;;;4161148;28;19916;-87
2022/07/02 12:03:22;;;;;;;;;;;22.80;38.90;;;;;;4157722;28;19921;-86
2022/07/02 12:05:50;;;;;;;;;;;22.80;38.70;;;;;;4155815;28;20361;-88
2022/07/02 12:08:14;;;;;;;;;;;22.80;38.90;;;;;;4157159;28;21145;-90
2022/07/02 12:10:39;;;;;;;;;;;22.80;40.10;;;;;;4160235;28;19913;-84
2022/07/02 12:13:06;;;;;;;;;;;22.80;40.30;;;;;;4157374;28;19920;-87
2022/07/02 12:15:27;;;;;;;;;;;22.80;40.30;;;;;;4159691;28;19912;-86
2022/07/02 12:17:49;;;;;;;;;;;22.90;39.50;;;;;;4160345;28;20025;-88
2022/07/02 12:20:10;;;;;;;;;;;22.90;39.80;;;;;;4156331;28;19913;-85
2022/07/02 12:22:33;;;;;;;;;;;22.90;39.70;;;;;;4164569;28;20064;-85
2022/07/02 12:24:54;;;;;;;;;;;22.90;38.50;;;;;;4148392;28;19924;-86
2022/07/02 12:27:15;;;;;;;;;;;23.00;39.40;;;;;;4144684;28;19922;-86
2022/07/02 12:32:17;;;;;;;;;;;23.10;39.90;;;;;;4163077;28;19912;-87
2022/07/02 12:34:41;;;;;;;;;;;23.10;40.20;;;;;;4154217;28;19937;-90
2022/07/02 12:37:03;;;;;;;;;;;23.10;38.60;;;;;;4159123;28;20007;-88
2022/07/02 12:39:35;;;;;;;;;;;23.20;39.90;;;;;;4160237;28;19924;-86
2022/07/02 12:41:57;;;;;;;;;;;23.20;39.60;;;;;;4160017;28;19921;-87
2022/07/02 12:44:19;;;;;;;;;;;23.20;39.20;;;;;;4158700;28;20007;-87
2022/07/02 12:46:43;;;;;;;;;;;23.30;38.00;;;;;;4143536;28;20030;-90
2022/07/02 12:49:12;;;;;;;;;;;23.30;38.90;;;;;;4149735;28;19909;-88
2022/07/02 12:51:33;;;;;;;;;;;23.30;38.60;;;;;;4162386;28;19897;-90
2022/07/02 12:53:57;;;;;;;;;;;23.20;36.80;;;;;;4182442;28;19970;-87
2022/07/02 12:56:18;;;;;;;;;;;23.30;37.70;;;;;;4170234;28;19912;-86
2022/07/02 12:58:39;;;;;;;;;;;23.30;37.50;;;;;;4166096;28;19940;-87
2022/07/02 13:01:01;;;;;;;;;;;23.30;37.20;;;;;;4175035;28;20180;-87
2022/07/02 13:03:22;;;;;;;;;;;23.30;37.40;;;;;;4165793;28;19909;-86
2022/07/02 13:05:45;;;;;;;;;;;23.30;37.40;;;;;;4171024;28;19908;-87
2022/07/02 13:08:06;;;;;;;;;;;23.30;36.60;;;;;;4170801;28;20398;-91
2022/07/02 13:10:26;;;;;;;;;;;23.30;37.30;;;;;;4151673;28;19923;-86
2022/07/02 13:12:47;;;;;;;;;;;23.30;37.40;;;;;;4150382;28;19914;-88
2022/07/02 13:15:08;;;;;;;;;;;23.30;37.10;;;;;;4161068;28;19977;-87
2022/07/02 13:17:29;;;;;;;;;;;23.30;37.40;;;;;;4159353;28;19912;-87
2022/07/02 13:19:50;;;;;;;;;;;23.30;38.30;;;;;;4144962;28;19956;-89
2022/07/02 13:22:12;;;;;;;;;;;23.30;37.70;;;;;;4161483;28;20024;-88
2022/07/02 13:24:33;;;;;;;;;;;23.40;37.50;;;;;;4136932;28;20002;-88
2022/07/02 13:26:54;;;;;;;;;;;23.40;37.50;;;;;;4155893;28;19916;-87
2022/07/02 13:29:15;;;;;;;;;;;23.40;37.70;;;;;;4142425;28;19917;-88
2022/07/02 13:31:36;;;;;;;;;;;23.40;37.00;;;;;;4163106;28;20229;-87
2022/07/02 13:33:57;;;;;;;;;;;23.50;38.30;;;;;;4166640;28;20288;-89
2022/07/02 13:36:18;;;;;;;;;;;23.50;37.50;;;;;;4154756;28;20032;-87
2022/07/02 13:38:39;;;;;;;;;;;23.50;37.30;;;;;;4160148;28;19916;-86
2022/07/02 13:41:00;;;;;;;;;;;23.50;37.20;;;;;;4146082;28;19921;-87
2022/07/02 13:43:21;;;;;;;;;;;23.50;37.20;;;;;;4136552;28;20288;-89
2022/07/02 13:45:42;;;;;;;;;;;23.50;36.20;;;;;;4157467;28;19913;-86
2022/07/02 13:48:03;;;;;;;;;;;23.50;36.30;;;;;;4148945;28;19908;-91
2022/07/02 13:50:26;;;;;;;;;;;23.50;36.30;;;;;;4160415;28;19909;-88
2022/07/02 13:52:47;;;;;;;;;;;23.60;37.20;;;;;;4157736;28;20046;-88